Locustwood, New York
Current Conditions -  °F | °C
As of 3:51 AM on Friday 19 Dec 2014 (Local Time) from KJFK Reporting Station
Scattered Clouds Scattered Clouds  
Wind Chill: 29°   Ceiling: Unl
Heat Index: 38°   Visibility: 10mi
Dew Point: 23°   Wind: 17mph
Humidity: 55%   Direction: 320°NW
Pressure: 29.99"   Gusts: 24mph
Location:  40.7013°N, 73.7074°W
Report Text: KJFK 190851Z 32015G21KT 10SM FEW033 SCT055 SCT250 03/M05 A2999 RMK AO2 SLP153 T00331050 53003 $
Loading
Personal Weather Stations






























Interactive Weather Map New forecast layout! Learn more

10-Day Weather Forecast

Advertisements
Track Severe Weather on mobile